Погода Гуаранезияна 2 недели

Минас-Жерайс, Бразилия

25 июля-06 августа
  • 25июля
    Сегодня
    +12°
    +27°
    Ясно и безоблачно
    ВремяПогодаТемператураВлажностьДавлениеВетер, м/сВероятность осадков
    00:00Небольшая облачность+15°C61 %694 мм2.9 м/с5 %
    03:00Ясно и безоблачно+14°C64 %693 мм3.2 м/с5 %
    06:00Ясно и безоблачно+12°C75 %693 мм3.2 м/с5 %
    09:00Ясно и безоблачно+17°C58 %696 мм2.8 м/с5 %
    12:00Ясно и безоблачно+24°C33 %696 мм0.9 м/с5 %
    15:00Ясно и безоблачно+27°C31 %694 мм0.7 м/с5 %
    18:00Ясно и безоблачно+22°C52 %693 мм1.7 м/с5 %
    21:00Ясно и безоблачно+17°C62 %693 мм2.6 м/с5 %
  • 26июля
    Пятница
    +13°
    +27°
    Облачно с прояснениями
    ВремяПогодаТемператураВлажностьДавлениеВетер, м/сВероятность осадков
    00:00Ясно и безоблачно+16°C61 %693 мм2.7 м/с5 %
    03:00Ясно и безоблачно+14°C65 %691 мм2.6 м/с5 %
    06:00Ясно и безоблачно+13°C68 %691 мм2.6 м/с5 %
    09:00Практически безоблачно+18°C52 %694 мм2.3 м/с5 %
    12:00Практически безоблачно+24°C33 %695 мм1.0 м/с5 %
    15:00Облачно с прояснениями+27°C33 %693 мм0.6 м/с5 %
    18:00Облачно с прояснениями+22°C51 %693 мм2.2 м/с5 %
    21:00Облачно с прояснениями+19°C54 %693 мм2.5 м/с5 %
  • 27июля
    Суббота
    +14°
    +29°
    Ясно и безоблачно
    ВремяПогодаТемператураВлажностьДавлениеВетер, м/сВероятность осадков
    00:00Облачно с прояснениями+17°C61 %693 мм2.5 м/с5 %
    03:00Облачно с прояснениями+15°C61 %691 мм2.8 м/с5 %
    06:00Небольшая облачность+14°C63 %691 мм3.0 м/с5 %
    09:00Небольшая облачность+19°C51 %694 мм2.7 м/с5 %
    12:00Ясно и безоблачно+25°C29 %695 мм1.3 м/с5 %
    15:00Ясно и безоблачно+28°C27 %694 мм1.0 м/с5 %
    18:00Ясно и безоблачно+24°C44 %693 мм1.4 м/с5 %
    21:00Ясно и безоблачно+19°C52 %694 мм2.9 м/с5 %
  • 28июля
    Воскресенье
    +15°
    +30°
    Ясно и безоблачно
    ВремяПогодаТемператураВлажностьДавлениеВетер, м/сВероятность осадков
    00:00Ясно и безоблачно+18°C52 %693 мм3.0 м/с5 %
    03:00Ясно и безоблачно+16°C58 %692 мм2.9 м/с5 %
    06:00Ясно и безоблачно+14°C64 %692 мм3.4 м/с5 %
    09:00Ясно и безоблачно+19°C52 %694 мм3.2 м/с5 %
    12:00Ясно и безоблачно+26°C30 %695 мм2.7 м/с5 %
    15:00Ясно и безоблачно+29°C27 %694 мм2.0 м/с5 %
    18:00Ясно и безоблачно+24°C44 %693 мм1.6 м/с5 %
    21:00Ясно и безоблачно+19°C52 %693 мм2.8 м/с5 %
  • 29июля
    Понедельник
    +11°
    +29°
    Ясно и безоблачно
    ВремяПогодаТемператураВлажностьДавлениеВетер, м/сВероятность осадков
    00:00Ясно и безоблачно+20°C55 %694 мм2.8 м/с5 %
    03:00Ясно и безоблачно+19°C55 %693 мм2.7 м/с5 %
    06:00Ясно и безоблачно+16°C63 %692 мм2.0 м/с5 %
    09:00Ясно и безоблачно+21°C51 %695 мм1.9 м/с5 %
    12:00Ясно и безоблачно+27°C31 %695 мм1.9 м/с5 %
    15:00Ясно и безоблачно+29°C31 %694 мм3.2 м/с5 %
    18:00Ясно и безоблачно+24°C48 %693 мм1.9 м/с5 %
    21:00Практически безоблачно+20°C54 %693 мм1.8 м/с5 %
Мы используем cookies
Соглашаюсь